Huvudsida
METAR-TAF:

METAR-TAF

Flygplatser :

Guilin Liangjiang International Airport

Guilin, Kina

latitud: 25-20N, longitud: 110-18E, höjd: 166 m

Aktuellt väderrapport

Denna rapport gjordes för 57 minuter sedan, klockan 17:00 UTC
Stilla vind
Temperatur 27°C
Fuktighet 94%
Tryck 1003 hPa
Sikt 10 km eller mer
Få moln på en höjd av 3300 ft

METAR: ZGKL 191700Z 00000MPS 9999 FEW033 27/26 Q1003 NOSIG

Tid: 01:57 (17:57 UTC)

Väderprognos

Denna rapport gjordes för 2 timmar och 41 minuter sedan, klockan 15:16 UTC
Prognos gäller från 19 kl. 18 UTC till 20 kl. 18 UTC
Vind 8 kt från syd
Sikt 10 km eller mer
Spridda moln på en höjd av 3000 ft
Temporärt
från 19 kl. 20 UTC till 20 kl. 02 UTC
Sikt: 2500 m
Få moln på en höjd av 3000 ft, Cumulonimbus.
Brutna moln på en höjd av 4000 ft
regnskurar

TAF: ZGKL 191516Z 1918/2018 18004MPS 9999 SCT030 TX33/2008Z TN25/1921Z TEMPO 1920/2002 2500 SHRA FEW030CB BKN040

Aktuella väderrapporter och prognoser från 4000 flygplatser (METAR- och TAF-rapporter).

De tillgängliga stationerna syns som gula och röda prickar på kartan.

För musen över prickarna för att se namnen på stationerna.

Klicka sedan för att få väderrapporter och prognoser.

För att ändra kartan: Klicka på de gröna knapparna med ett svart kors på för att zooma in; den gröna knappen med ett streck på för att zooma ut; eller på de gröna pilarna för angränsande kartor.


METAR-TAF: